sensor_id;sensor_type;location;lat;lon;timestamp;P1;P2;P0
76045;PMS7003;64741;41.730;44.788;2023-06-10T00:02:20;3;3;2.2
76045;PMS7003;64741;41.730;44.788;2023-06-10T00:07:20;3;2.4;1.6
76045;PMS7003;64741;41.730;44.788;2023-06-10T00:12:20;3.2;2.8;1.6
76045;PMS7003;64741;41.730;44.788;2023-06-10T00:17:28;2.2;2;1
76045;PMS7003;64741;41.730;44.788;2023-06-10T00:22:20;3.6;2.8;1.6
76045;PMS7003;64741;41.730;44.788;2023-06-10T00:27:20;2.8;2.8;2
76045;PMS7003;64741;41.730;44.788;2023-06-10T00:32:16;3.8;3.2;2.4
76045;PMS7003;64741;41.730;44.788;2023-06-10T00:37:24;3.8;3;2.4
76045;PMS7003;64741;41.730;44.788;2023-06-10T00:42:20;3.8;3;2
76045;PMS7003;64741;41.730;44.788;2023-06-10T00:47:18;3.4;2.8;1.8
76045;PMS7003;64741;41.730;44.788;2023-06-10T00:52:20;3.4;3.2;2
76045;PMS7003;64741;41.730;44.788;2023-06-10T00:57:26;3;2.4;1.8
76045;PMS7003;64741;41.730;44.788;2023-06-10T01:02:04;2.2;2;1.4
76045;PMS7003;64741;41.730;44.788;2023-06-10T01:07:20;3.4;3;2.6
76045;PMS7003;64741;41.730;44.788;2023-06-10T01:12:25;4;3.4;2.4
76045;PMS7003;64741;41.730;44.788;2023-06-10T01:17:30;4;3.2;2.6
76045;PMS7003;64741;41.730;44.788;2023-06-10T01:22:22;3.2;3;2.2
76045;PMS7003;64741;41.730;44.788;2023-06-10T01:27:18;4.4;3.6;3
76045;PMS7003;64741;41.730;44.788;2023-06-10T01:32:03;3.4;3.4;2.8
76045;PMS7003;64741;41.730;44.788;2023-06-10T01:37:30;4;3;2.4
76045;PMS7003;64741;41.730;44.788;2023-06-10T01:42:22;3.6;3.2;2.4
76045;PMS7003;64741;41.730;44.788;2023-06-10T01:47:20;3.6;3.2;2.8
76045;PMS7003;64741;41.730;44.788;2023-06-10T01:52:22;3.2;2.4;1.4
76045;PMS7003;64741;41.730;44.788;2023-06-10T01:57:30;4;3.6;3
76045;PMS7003;64741;41.730;44.788;2023-06-10T02:02:22;4.6;3.6;3
76045;PMS7003;64741;41.730;44.788;2023-06-10T02:07:30;4;3.8;2.4
76045;PMS7003;64741;41.730;44.788;2023-06-10T02:12:22;3.4;2.6;1.8
76045;PMS7003;64741;41.730;44.788;2023-06-10T02:17:30;2.6;2.4;2
76045;PMS7003;64741;41.730;44.788;2023-06-10T02:22:24;4.2;2.6;2
76045;PMS7003;64741;41.730;44.788;2023-06-10T02:27:30;4;3.4;2.2
76045;PMS7003;64741;41.730;44.788;2023-06-10T02:32:22;4.4;3.6;3.2
76045;PMS7003;64741;41.730;44.788;2023-06-10T02:37:28;3.4;2.4;1.8
76045;PMS7003;64741;41.730;44.788;2023-06-10T02:42:24;3.6;3.2;2.2
76045;PMS7003;64741;41.730;44.788;2023-06-10T02:47:28;3.8;3.4;2.6
76045;PMS7003;64741;41.730;44.788;2023-06-10T02:52:22;4.2;3.8;2.4
76045;PMS7003;64741;41.730;44.788;2023-06-10T02:57:30;4.4;3.4;2.4
76045;PMS7003;64741;41.730;44.788;2023-06-10T03:02:22;4;2.6;1.8
76045;PMS7003;64741;41.730;44.788;2023-06-10T03:07:28;3.8;2.8;2.8
76045;PMS7003;64741;41.730;44.788;2023-06-10T03:12:22;3.8;3;2.2
76045;PMS7003;64741;41.730;44.788;2023-06-10T03:17:30;2.8;2;1.2
76045;PMS7003;64741;41.730;44.788;2023-06-10T03:22:22;2.8;2.4;1.6
76045;PMS7003;64741;41.730;44.788;2023-06-10T03:27:30;4;3.2;2.2
76045;PMS7003;64741;41.730;44.788;2023-06-10T03:32:22;4.8;3.2;2.4
76045;PMS7003;64741;41.730;44.788;2023-06-10T03:37:30;4.4;3.4;2.2
76045;PMS7003;64741;41.730;44.788;2023-06-10T03:42:22;5;3.8;2.4
76045;PMS7003;64741;41.730;44.788;2023-06-10T03:47:32;4.4;3.2;2.4
76045;PMS7003;64741;41.730;44.788;2023-06-10T03:52:22;4.3;3.5;3
76045;PMS7003;64741;41.730;44.788;2023-06-10T03:57:30;4.2;3.2;2.2
76045;PMS7003;64741;41.730;44.788;2023-06-10T04:01:52;3.6;3.2;2.4
76045;PMS7003;64741;41.730;44.788;2023-06-10T04:07:12;4;3.4;2.2
76045;PMS7003;64741;41.730;44.788;2023-06-10T04:12:22;3.8;2.6;2.2
76045;PMS7003;64741;41.730;44.788;2023-06-10T04:17:16;3.4;2.8;2.2
76045;PMS7003;64741;41.730;44.788;2023-06-10T04:22:22;5.2;4;2.8
76045;PMS7003;64741;41.730;44.788;2023-06-10T04:27:30;3.2;2.8;1.8
76045;PMS7003;64741;41.730;44.788;2023-06-10T04:32:22;3.2;2.6;2
76045;PMS7003;64741;41.730;44.788;2023-06-10T04:37:30;4.2;2.8;2.2
76045;PMS7003;64741;41.730;44.788;2023-06-10T04:42:06;4.6;4;2.6
76045;PMS7003;64741;41.730;44.788;2023-06-10T04:47:14;5;4.4;3.2
76045;PMS7003;64741;41.730;44.788;2023-06-10T04:52:22;3.4;2.8;2
76045;PMS7003;64741;41.730;44.788;2023-06-10T04:57:30;3.2;2.8;2
76045;PMS7003;64741;41.730;44.788;2023-06-10T05:02:20;4.2;3.4;2.4
76045;PMS7003;64741;41.730;44.788;2023-06-10T05:07:26;3.8;2.8;2
76045;PMS7003;64741;41.730;44.788;2023-06-10T05:12:22;4.2;3.6;2.8
76045;PMS7003;64741;41.730;44.788;2023-06-10T05:17:26;4.8;3.6;2.6
76045;PMS7003;64741;41.730;44.788;2023-06-10T05:22:22;3.6;3.6;3
76045;PMS7003;64741;41.730;44.788;2023-06-10T05:27:30;3.8;3;2.4
76045;PMS7003;64741;41.730;44.788;2023-06-10T05:32:24;3.2;3;2.2
76045;PMS7003;64741;41.730;44.788;2023-06-10T05:37:30;5;4;2.8
76045;PMS7003;64741;41.730;44.788;2023-06-10T05:42:24;4.6;3.4;2.4
76045;PMS7003;64741;41.730;44.788;2023-06-10T05:47:10;4.6;3.4;2.8
76045;PMS7003;64741;41.730;44.788;2023-06-10T05:52:22;4.6;3;2.4
76045;PMS7003;64741;41.730;44.788;2023-06-10T05:57:30;4.2;2.8;2.2
76045;PMS7003;64741;41.730;44.788;2023-06-10T06:02:22;4.4;3;1.6
76045;PMS7003;64741;41.730;44.788;2023-06-10T06:07:30;1.6;1.6;1.2
76045;PMS7003;64741;41.730;44.788;2023-06-10T06:12:18;2.4;1.6;1.4
76045;PMS7003;64741;41.730;44.788;2023-06-10T06:17:20;2.8;2.2;1
76045;PMS7003;64741;41.730;44.788;2023-06-10T06:22:20;2.6;2;2
76045;PMS7003;64741;41.730;44.788;2023-06-10T06:27:08;3;2.8;2.2
76045;PMS7003;64741;41.730;44.788;2023-06-10T06:32:18;2;1.8;1.4
76045;PMS7003;64741;41.730;44.788;2023-06-10T06:37:20;3.2;2.6;1.2
76045;PMS7003;64741;41.730;44.788;2023-06-10T06:42:18;3.4;2.8;2
76045;PMS7003;64741;41.730;44.788;2023-06-10T06:47:20;3;2.8;1.8
76045;PMS7003;64741;41.730;44.788;2023-06-10T06:52:18;3.2;2.8;2.2
76045;PMS7003;64741;41.730;44.788;2023-06-10T06:57:20;3.6;3.4;2.4
76045;PMS7003;64741;41.730;44.788;2023-06-10T07:02:18;2.8;2.4;1.6
76045;PMS7003;64741;41.730;44.788;2023-06-10T07:07:08;3.4;2.4;1.6
76045;PMS7003;64741;41.730;44.788;2023-06-10T07:12:18;3;2.8;2
76045;PMS7003;64741;41.730;44.788;2023-06-10T07:17:22;1.6;1.6;1.2
76045;PMS7003;64741;41.730;44.788;2023-06-10T07:22:18;3;2.6;1.8
76045;PMS7003;64741;41.730;44.788;2023-06-10T07:27:22;3;2.4;1.6
76045;PMS7003;64741;41.730;44.788;2023-06-10T07:32:18;3.4;3;2.2
76045;PMS7003;64741;41.730;44.788;2023-06-10T07:37:22;2.8;2.4;1.4
76045;PMS7003;64741;41.730;44.788;2023-06-10T07:42:18;3;2.8;2
76045;PMS7003;64741;41.730;44.788;2023-06-10T07:47:22;2.8;2.4;1.6
76045;PMS7003;64741;41.730;44.788;2023-06-10T07:52:20;3;2.2;1.6
76045;PMS7003;64741;41.730;44.788;2023-06-10T07:57:10;3.6;3.2;2.2
76045;PMS7003;64741;41.730;44.788;2023-06-10T08:02:18;3;2.6;1.8
76045;PMS7003;64741;41.730;44.788;2023-06-10T08:07:22;2.8;2.4;2
76045;PMS7003;64741;41.730;44.788;2023-06-10T08:12:18;5;3.6;2.4
76045;PMS7003;64741;41.730;44.788;2023-06-10T08:17:22;3.2;2.6;2
76045;PMS7003;64741;41.730;44.788;2023-06-10T08:22:18;3.8;3;2.4
76045;PMS7003;64741;41.730;44.788;2023-06-10T08:27:22;5;3.6;2.4
76045;PMS7003;64741;41.730;44.788;2023-06-10T08:32:20;3;3;2
76045;PMS7003;64741;41.730;44.788;2023-06-10T08:37:22;4.2;4;3.2
76045;PMS7003;64741;41.730;44.788;2023-06-10T08:42:22;6.2;4.2;3.4
76045;PMS7003;64741;41.730;44.788;2023-06-10T08:47:22;5.2;4.8;3.8
76045;PMS7003;64741;41.730;44.788;2023-06-10T08:52:20;4.8;4.2;3.2
76045;PMS7003;64741;41.730;44.788;2023-06-10T08:57:22;3.8;3.4;2.6
76045;PMS7003;64741;41.730;44.788;2023-06-10T09:02:18;3.8;3.3;2.5
76045;PMS7003;64741;41.730;44.788;2023-06-10T09:07:22;3.4;3;1.8
76045;PMS7003;64741;41.730;44.788;2023-06-10T09:12:20;3.4;2.8;1.6
76045;PMS7003;64741;41.730;44.788;2023-06-10T09:17:22;3.4;2.6;1.8
76045;PMS7003;64741;41.730;44.788;2023-06-10T09:22:20;3.8;2.8;2
76045;PMS7003;64741;41.730;44.788;2023-06-10T09:27:22;4.2;2.8;1.8
76045;PMS7003;64741;41.730;44.788;2023-06-10T09:32:20;5.4;3.6;2
76045;PMS7003;64741;41.730;44.788;2023-06-10T09:37:22;3.2;2.6;2.2
76045;PMS7003;64741;41.730;44.788;2023-06-10T09:42:22;3;2.6;2
76045;PMS7003;64741;41.730;44.788;2023-06-10T09:47:24;3.8;3;2.6
76045;PMS7003;64741;41.730;44.788;2023-06-10T09:52:22;3.4;3;2.2
76045;PMS7003;64741;41.730;44.788;2023-06-10T09:57:24;3.8;2.4;1.6
76045;PMS7003;64741;41.730;44.788;2023-06-10T10:02:18;5;4.6;3.8
76045;PMS7003;64741;41.730;44.788;2023-06-10T10:07:20;10;9.6;7.4
76045;PMS7003;64741;41.730;44.788;2023-06-10T10:12:18;5.6;4.4;3.6
76045;PMS7003;64741;41.730;44.788;2023-06-10T10:17:22;4;3.2;2.6
76045;PMS7003;64741;41.730;44.788;2023-06-10T10:22:07;5.2;4.2;2.8
76045;PMS7003;64741;41.730;44.788;2023-06-10T10:27:25;5.2;3.8;3
76045;PMS7003;64741;41.730;44.788;2023-06-10T10:32:23;4;2.8;2.2
76045;PMS7003;64741;41.730;44.788;2023-06-10T10:37:24;3.2;2.8;2.2
76045;PMS7003;64741;41.730;44.788;2023-06-10T10:42:06;2.8;2.2;1.6
76045;PMS7003;64741;41.730;44.788;2023-06-10T10:47:22;3.8;3;2.2
76045;PMS7003;64741;41.730;44.788;2023-06-10T10:52:24;4.8;4;2.4
76045;PMS7003;64741;41.730;44.788;2023-06-10T10:57:20;2.8;2.8;1.8
76045;PMS7003;64741;41.730;44.788;2023-06-10T11:02:18;3.8;3.2;2.4
76045;PMS7003;64741;41.730;44.788;2023-06-10T11:07:22;4;2.8;1.6
76045;PMS7003;64741;41.730;44.788;2023-06-10T11:12:21;6.6;5.8;4.2
76045;PMS7003;64741;41.730;44.788;2023-06-10T11:17:22;12.8;11.4;8.2
76045;PMS7003;64741;41.730;44.788;2023-06-10T11:22:22;12.6;11.2;8.2
76045;PMS7003;64741;41.730;44.788;2023-06-10T11:27:22;12.6;10.6;7.4
76045;PMS7003;64741;41.730;44.788;2023-06-10T11:32:24;9;8;6
76045;PMS7003;64741;41.730;44.788;2023-06-10T11:37:22;9.2;7.8;5.6
76045;PMS7003;64741;41.730;44.788;2023-06-10T11:42:22;6.4;4.8;3.4
76045;PMS7003;64741;41.730;44.788;2023-06-10T11:47:22;3.2;3;2.2
76045;PMS7003;64741;41.730;44.788;2023-06-10T11:52:26;3.2;2.6;2.4
76045;PMS7003;64741;41.730;44.788;2023-06-10T11:57:22;2.4;2.2;1.4
76045;PMS7003;64741;41.730;44.788;2023-06-10T12:02:20;2.2;2.2;1.6
76045;PMS7003;64741;41.730;44.788;2023-06-10T12:07:20;4;2.8;2
76045;PMS7003;64741;41.730;44.788;2023-06-10T12:12:20;4.8;4.2;2.8
76045;PMS7003;64741;41.730;44.788;2023-06-10T12:17:20;4.8;4.2;3
76045;PMS7003;64741;41.730;44.788;2023-06-10T12:22:20;3.4;2.8;2.2
76045;PMS7003;64741;41.730;44.788;2023-06-10T12:27:20;3.2;3;2
76045;PMS7003;64741;41.730;44.788;2023-06-10T12:32:20;1.8;1.2;0.8
76045;PMS7003;64741;41.730;44.788;2023-06-10T12:37:18;3.2;2.4;1.8
76045;PMS7003;64741;41.730;44.788;2023-06-10T12:42:18;4;2.4;1.8
76045;PMS7003;64741;41.730;44.788;2023-06-10T12:47:20;2.8;2;1
76045;PMS7003;64741;41.730;44.788;2023-06-10T12:52:22;1.8;1.6;0.8
76045;PMS7003;64741;41.730;44.788;2023-06-10T12:57:20;2.8;2.4;1.4
76045;PMS7003;64741;41.730;44.788;2023-06-10T13:02:20;1.4;1;0.4
76045;PMS7003;64741;41.730;44.788;2023-06-10T13:07:20;1.2;0.8;0.6
76045;PMS7003;64741;41.730;44.788;2023-06-10T13:12:22;1.8;1.8;1.2
76045;PMS7003;64741;41.730;44.788;2023-06-10T13:17:18;2.8;2.2;1.8
76045;PMS7003;64741;41.730;44.788;2023-06-10T13:22:18;2.8;1.6;1
76045;PMS7003;64741;41.730;44.788;2023-06-10T13:27:06;3.2;2.6;1.8
76045;PMS7003;64741;41.730;44.788;2023-06-10T13:32:24;4;3.6;2.2
76045;PMS7003;64741;41.730;44.788;2023-06-10T13:37:22;4;3;2.4
76045;PMS7003;64741;41.730;44.788;2023-06-10T13:42:20;4.4;3.8;3
76045;PMS7003;64741;41.730;44.788;2023-06-10T13:47:22;3;2;1.6
76045;PMS7003;64741;41.730;44.788;2023-06-10T13:52:10;3.2;2.6;2
76045;PMS7003;64741;41.730;44.788;2023-06-10T13:57:22;4.2;3.4;2.2
76045;PMS7003;64741;41.730;44.788;2023-06-10T14:02:22;3;3;2
76045;PMS7003;64741;41.730;44.788;2023-06-10T14:07:22;3;2.4;2
76045;PMS7003;64741;41.730;44.788;2023-06-10T14:12:20;4.2;3.4;2.4
76045;PMS7003;64741;41.730;44.788;2023-06-10T14:17:18;3.8;3.5;2.3
76045;PMS7003;64741;41.730;44.788;2023-06-10T14:22:20;5.2;3.4;2.2
76045;PMS7003;64741;41.730;44.788;2023-06-10T14:27:22;4.2;3.8;3
76045;PMS7003;64741;41.730;44.788;2023-06-10T14:32:22;4.8;3.8;2.6
76045;PMS7003;64741;41.730;44.788;2023-06-10T14:37:20;3.4;3;2.6
76045;PMS7003;64741;41.730;44.788;2023-06-10T14:42:06;3.2;2.4;2
76045;PMS7003;64741;41.730;44.788;2023-06-10T14:47:22;7.4;6.8;4.8
76045;PMS7003;64741;41.730;44.788;2023-06-10T14:52:22;5;5;3
76045;PMS7003;64741;41.730;44.788;2023-06-10T14:57:22;4.2;3.4;2
76045;PMS7003;64741;41.730;44.788;2023-06-10T15:02:18;3.6;3.2;2
76045;PMS7003;64741;41.730;44.788;2023-06-10T15:07:20;4;3.6;2.6
76045;PMS7003;64741;41.730;44.788;2023-06-10T15:12:18;5.2;4;3.2
76045;PMS7003;64741;41.730;44.788;2023-06-10T15:17:20;5.6;4.6;3
76045;PMS7003;64741;41.730;44.788;2023-06-10T15:22:20;3.6;3.4;2.2
76045;PMS7003;64741;41.730;44.788;2023-06-10T15:27:08;4.4;3.4;2.6
76045;PMS7003;64741;41.730;44.788;2023-06-10T15:32:18;5.2;4;3
76045;PMS7003;64741;41.730;44.788;2023-06-10T15:37:20;5;3.2;2.4
76045;PMS7003;64741;41.730;44.788;2023-06-10T15:42:18;3;2.8;2.4
76045;PMS7003;64741;41.730;44.788;2023-06-10T15:47:20;3;2.8;2
76045;PMS7003;64741;41.730;44.788;2023-06-10T15:52:16;4.6;4.2;2.8
76045;PMS7003;64741;41.730;44.788;2023-06-10T15:57:18;5.6;4.6;3.4
76045;PMS7003;64741;41.730;44.788;2023-06-10T16:02:18;4.8;4.2;3
76045;PMS7003;64741;41.730;44.788;2023-06-10T16:07:20;6.8;5;3.8
76045;PMS7003;64741;41.730;44.788;2023-06-10T16:12:00;6;5.2;4
76045;PMS7003;64741;41.730;44.788;2023-06-10T16:17:20;6.6;6.2;4.6
76045;PMS7003;64741;41.730;44.788;2023-06-10T16:22:18;10.6;9.2;6.8
76045;PMS7003;64741;41.730;44.788;2023-06-10T16:26:54;18.4;15.8;10.4
76045;PMS7003;64741;41.730;44.788;2023-06-10T16:32:20;27;21.2;14.6
76045;PMS7003;64741;41.730;44.788;2023-06-10T16:37:16;19.8;17.4;12.2
76045;PMS7003;64741;41.730;44.788;2023-06-10T16:42:20;24.2;20.6;14.4
76045;PMS7003;64741;41.730;44.788;2023-06-10T16:47:22;21.4;19.4;12.8
76045;PMS7003;64741;41.730;44.788;2023-06-10T16:52:20;19;15.2;10.8
76045;PMS7003;64741;41.730;44.788;2023-06-10T16:57:22;14;11.2;8.2
76045;PMS7003;64741;41.730;44.788;2023-06-10T17:02:18;13;11.6;8
76045;PMS7003;64741;41.730;44.788;2023-06-10T17:07:06;12.8;11.2;8
76045;PMS7003;64741;41.730;44.788;2023-06-10T17:12:20;14;11.2;8.2
76045;PMS7003;64741;41.730;44.788;2023-06-10T17:17:20;12.6;9.4;6.4
76045;PMS7003;64741;41.730;44.788;2023-06-10T17:22:18;8;7.2;5.2
76045;PMS7003;64741;41.730;44.788;2023-06-10T17:27:20;10.2;8;5.8
76045;PMS7003;64741;41.730;44.788;2023-06-10T17:32:18;10.2;7.6;6.2
76045;PMS7003;64741;41.730;44.788;2023-06-10T17:37:20;8.4;6.8;5
76045;PMS7003;64741;41.730;44.788;2023-06-10T17:42:18;7.4;6.6;5
76045;PMS7003;64741;41.730;44.788;2023-06-10T17:47:20;7;6;4.6
76045;PMS7003;64741;41.730;44.788;2023-06-10T17:52:22;5.2;4.8;3.4
76045;PMS7003;64741;41.730;44.788;2023-06-10T17:57:22;5.2;4.4;3.4
76045;PMS7003;64741;41.730;44.788;2023-06-10T18:02:22;4.4;4;3
76045;PMS7003;64741;41.730;44.788;2023-06-10T18:07:22;5;4;3.2
76045;PMS7003;64741;41.730;44.788;2023-06-10T18:12:23;6.4;5;4
76045;PMS7003;64741;41.730;44.788;2023-06-10T18:17:20;4.6;4.2;3.4
76045;PMS7003;64741;41.730;44.788;2023-06-10T18:22:10;5.4;4.6;3.4
76045;PMS7003;64741;41.730;44.788;2023-06-10T18:27:20;4;4;3
76045;PMS7003;64741;41.730;44.788;2023-06-10T18:32:22;5.2;4.2;2.8
76045;PMS7003;64741;41.730;44.788;2023-06-10T18:37:20;4.8;4.2;3
76045;PMS7003;64741;41.730;44.788;2023-06-10T18:42:18;4.2;3.8;2.8
76045;PMS7003;64741;41.730;44.788;2023-06-10T18:47:16;5.4;4.8;3.4
76045;PMS7003;64741;41.730;44.788;2023-06-10T18:52:22;5.2;4.8;3.8
76045;PMS7003;64741;41.730;44.788;2023-06-10T18:57:22;6;5.4;4
76045;PMS7003;64741;41.730;44.788;2023-06-10T19:02:18;4.6;4;3.4
76045;PMS7003;64741;41.730;44.788;2023-06-10T19:07:20;6.4;4.6;3.4
76045;PMS7003;64741;41.730;44.788;2023-06-10T19:12:20;4.6;3.6;3
76045;PMS7003;64741;41.730;44.788;2023-06-10T19:17:20;4.4;3.8;3.4
76045;PMS7003;64741;41.730;44.788;2023-06-10T19:22:18;4.8;4.2;3.2
76045;PMS7003;64741;41.730;44.788;2023-06-10T19:27:28;4.8;3.8;2.5
76045;PMS7003;64741;41.730;44.788;2023-06-10T19:32:18;3.2;3;2.2
76045;PMS7003;64741;41.730;44.788;2023-06-10T19:37:20;4.6;4.2;3.4
76045;PMS7003;64741;41.730;44.788;2023-06-10T19:42:10;4.8;4.8;3.6
76045;PMS7003;64741;41.730;44.788;2023-06-10T19:47:30;4.2;3.6;2.6
76045;PMS7003;64741;41.730;44.788;2023-06-10T19:52:20;4.6;3.8;3
76045;PMS7003;64741;41.730;44.788;2023-06-10T19:57:22;3.4;3;2.2
76045;PMS7003;64741;41.730;44.788;2023-06-10T20:02:16;5.4;4.2;3.2
76045;PMS7003;64741;41.730;44.788;2023-06-10T20:07:30;4;3.6;2.4
76045;PMS7003;64741;41.730;44.788;2023-06-10T20:12:22;4.6;3.8;3
76045;PMS7003;64741;41.730;44.788;2023-06-10T20:17:16;5;3.6;3.2
76045;PMS7003;64741;41.730;44.788;2023-06-10T20:22:02;4.4;4;2.8
76045;PMS7003;64741;41.730;44.788;2023-06-10T20:27:18;4.2;3.4;2.8
76045;PMS7003;64741;41.730;44.788;2023-06-10T20:32:20;3;2.6;2
76045;PMS7003;64741;41.730;44.788;2023-06-10T20:37:20;3;3;2.4
76045;PMS7003;64741;41.730;44.788;2023-06-10T20:42:20;3.6;2.8;1.8
76045;PMS7003;64741;41.730;44.788;2023-06-10T20:47:30;3.2;3;2.4
76045;PMS7003;64741;41.730;44.788;2023-06-10T20:52:22;5.4;3.8;3
76045;PMS7003;64741;41.730;44.788;2023-06-10T20:57:20;3.8;3;2.2
76045;PMS7003;64741;41.730;44.788;2023-06-10T21:02:20;5.2;2.8;2
76045;PMS7003;64741;41.730;44.788;2023-06-10T21:07:30;3.6;2.4;1.8
76045;PMS7003;64741;41.730;44.788;2023-06-10T21:12:18;3.8;3;1.8
76045;PMS7003;64741;41.730;44.788;2023-06-10T21:17:18;4;2.4;1.8
76045;PMS7003;64741;41.730;44.788;2023-06-10T21:22:04;4;3;2.4
76045;PMS7003;64741;41.730;44.788;2023-06-10T21:27:30;2.4;2;2
76045;PMS7003;64741;41.730;44.788;2023-06-10T21:32:20;4.2;3.2;1.8
76045;PMS7003;64741;41.730;44.788;2023-06-10T21:37:18;3;2.4;1.6
76045;PMS7003;64741;41.730;44.788;2023-06-10T21:42:18;2.8;2.4;1.8
76045;PMS7003;64741;41.730;44.788;2023-06-10T21:47:28;2.8;2.8;2.6
76045;PMS7003;64741;41.730;44.788;2023-06-10T21:52:16;3.2;2.6;1.8
76045;PMS7003;64741;41.730;44.788;2023-06-10T21:57:08;3.6;3;2.4
76045;PMS7003;64741;41.730;44.788;2023-06-10T22:02:16;2.6;2.2;1.2
76045;PMS7003;64741;41.730;44.788;2023-06-10T22:07:28;2.4;1.8;1.4
76045;PMS7003;64741;41.730;44.788;2023-06-10T22:12:18;2.4;1.6;1
76045;PMS7003;64741;41.730;44.788;2023-06-10T22:17:18;2.8;2.6;2
76045;PMS7003;64741;41.730;44.788;2023-06-10T22:22:16;2.6;2.2;1.8
76045;PMS7003;64741;41.730;44.788;2023-06-10T22:27:28;2.4;2;1.2
76045;PMS7003;64741;41.730;44.788;2023-06-10T22:32:18;3;2.8;1.8
76045;PMS7003;64741;41.730;44.788;2023-06-10T22:37:18;2.2;2.2;1.8
76045;PMS7003;64741;41.730;44.788;2023-06-10T22:42:18;3.8;3.4;1.8
76045;PMS7003;64741;41.730;44.788;2023-06-10T22:47:28;3.8;2.2;1.8
76045;PMS7003;64741;41.730;44.788;2023-06-10T22:52:17;3.2;2.6;1.4
76045;PMS7003;64741;41.730;44.788;2023-06-10T22:57:18;3.2;2.8;2
76045;PMS7003;64741;41.730;44.788;2023-06-10T23:02:18;2.6;2;1.4
76045;PMS7003;64741;41.730;44.788;2023-06-10T23:07:28;3.8;3;2
76045;PMS7003;64741;41.730;44.788;2023-06-10T23:12:16;2.6;2.4;1.6
76045;PMS7003;64741;41.730;44.788;2023-06-10T23:17:18;4;3.2;2.4
76045;PMS7003;64741;41.730;44.788;2023-06-10T23:22:14;3.2;2.8;2.2
76045;PMS7003;64741;41.730;44.788;2023-06-10T23:27:26;3.4;2.4;2
76045;PMS7003;64741;41.730;44.788;2023-06-10T23:32:14;3.4;3.2;2.2
76045;PMS7003;64741;41.730;44.788;2023-06-10T23:37:16;2.8;2.4;1.4
76045;PMS7003;64741;41.730;44.788;2023-06-10T23:42:14;3.2;2.8;1.8
76045;PMS7003;64741;41.730;44.788;2023-06-10T23:47:26;3.2;2.8;2
76045;PMS7003;64741;41.730;44.788;2023-06-10T23:52:26;3.6;3;2
76045;PMS7003;64741;41.730;44.788;2023-06-10T23:57:16;2.6;2.6;2
